sensor_id;sensor_type;location;lat;lon;timestamp;P1;durP1;ratioP1;P2;durP2;ratioP2
72856;SDS011;62742;52.136;4.500;2023-09-30T00:01:54;13.25;;;5.97;;
72856;SDS011;62742;52.136;4.500;2023-09-30T00:04:21;14.15;;;6.47;;
72856;SDS011;62742;52.136;4.500;2023-09-30T00:06:48;13.32;;;6.05;;
72856;SDS011;62742;52.136;4.500;2023-09-30T00:09:14;10.88;;;6.00;;
72856;SDS011;62742;52.136;4.500;2023-09-30T00:11:41;16.15;;;6.80;;
72856;SDS011;62742;52.136;4.500;2023-09-30T00:14:07;16.35;;;5.68;;
72856;SDS011;62742;52.136;4.500;2023-09-30T00:16:34;10.82;;;5.50;;
72856;SDS011;62742;52.136;4.500;2023-09-30T00:19:00;12.23;;;6.47;;
72856;SDS011;62742;52.136;4.500;2023-09-30T00:21:28;13.50;;;6.05;;
72856;SDS011;62742;52.136;4.500;2023-09-30T00:23:55;11.77;;;6.25;;
72856;SDS011;62742;52.136;4.500;2023-09-30T00:26:22;13.88;;;6.32;;
72856;SDS011;62742;52.136;4.500;2023-09-30T00:31:14;16.00;;;6.85;;
72856;SDS011;62742;52.136;4.500;2023-09-30T00:33:41;19.83;;;9.80;;
72856;SDS011;62742;52.136;4.500;2023-09-30T00:36:10;17.83;;;8.85;;
72856;SDS011;62742;52.136;4.500;2023-09-30T00:38:37;16.70;;;7.18;;
72856;SDS011;62742;52.136;4.500;2023-09-30T00:41:04;13.50;;;7.03;;
72856;SDS011;62742;52.136;4.500;2023-09-30T00:43:31;12.65;;;7.40;;
72856;SDS011;62742;52.136;4.500;2023-09-30T00:46:02;12.27;;;5.97;;
72856;SDS011;62742;52.136;4.500;2023-09-30T00:48:55;12.27;;;5.90;;
72856;SDS011;62742;52.136;4.500;2023-09-30T00:51:24;14.63;;;6.95;;
72856;SDS011;62742;52.136;4.500;2023-09-30T00:53:52;14.25;;;6.53;;
72856;SDS011;62742;52.136;4.500;2023-09-30T00:56:23;11.38;;;6.70;;
72856;SDS011;62742;52.136;4.500;2023-09-30T00:58:54;14.57;;;6.75;;
72856;SDS011;62742;52.136;4.500;2023-09-30T01:01:21;11.98;;;6.65;;
72856;SDS011;62742;52.136;4.500;2023-09-30T01:03:48;11.77;;;6.70;;
72856;SDS011;62742;52.136;4.500;2023-09-30T01:06:15;13.23;;;6.15;;
72856;SDS011;62742;52.136;4.500;2023-09-30T01:08:42;12.80;;;6.13;;
72856;SDS011;62742;52.136;4.500;2023-09-30T01:11:08;12.73;;;6.85;;
72856;SDS011;62742;52.136;4.500;2023-09-30T01:13:36;11.23;;;6.35;;
72856;SDS011;62742;52.136;4.500;2023-09-30T01:16:04;11.80;;;6.03;;
72856;SDS011;62742;52.136;4.500;2023-09-30T01:18:32;12.95;;;6.20;;
72856;SDS011;62742;52.136;4.500;2023-09-30T01:21:02;14.70;;;7.43;;
72856;SDS011;62742;52.136;4.500;2023-09-30T01:23:32;18.73;;;8.93;;
72856;SDS011;62742;52.136;4.500;2023-09-30T01:26:02;19.38;;;7.85;;
72856;SDS011;62742;52.136;4.500;2023-09-30T01:28:30;16.88;;;7.30;;
72856;SDS011;62742;52.136;4.500;2023-09-30T01:30:57;11.82;;;5.22;;
72856;SDS011;62742;52.136;4.500;2023-09-30T01:33:24;17.20;;;7.43;;
72856;SDS011;62742;52.136;4.500;2023-09-30T01:35:51;12.57;;;6.15;;
72856;SDS011;62742;52.136;4.500;2023-09-30T01:38:18;19.00;;;8.15;;
72856;SDS011;62742;52.136;4.500;2023-09-30T01:40:45;16.33;;;8.52;;
72856;SDS011;62742;52.136;4.500;2023-09-30T01:43:13;11.02;;;5.57;;
72856;SDS011;62742;52.136;4.500;2023-09-30T01:45:41;13.15;;;6.60;;
72856;SDS011;62742;52.136;4.500;2023-09-30T01:48:08;14.02;;;7.03;;
72856;SDS011;62742;52.136;4.500;2023-09-30T01:50:39;12.93;;;6.45;;
72856;SDS011;62742;52.136;4.500;2023-09-30T01:53:06;13.88;;;6.00;;
72856;SDS011;62742;52.136;4.500;2023-09-30T01:55:33;9.55;;;4.97;;
72856;SDS011;62742;52.136;4.500;2023-09-30T01:58:00;15.65;;;8.43;;
72856;SDS011;62742;52.136;4.500;2023-09-30T02:00:27;16.90;;;9.05;;
72856;SDS011;62742;52.136;4.500;2023-09-30T02:02:57;15.77;;;8.93;;
72856;SDS011;62742;52.136;4.500;2023-09-30T02:05:24;14.20;;;7.50;;
72856;SDS011;62742;52.136;4.500;2023-09-30T02:07:50;11.68;;;6.30;;
72856;SDS011;62742;52.136;4.500;2023-09-30T02:10:17;15.48;;;7.57;;
72856;SDS011;62742;52.136;4.500;2023-09-30T02:12:45;13.38;;;7.07;;
72856;SDS011;62742;52.136;4.500;2023-09-30T02:15:12;13.20;;;6.95;;
72856;SDS011;62742;52.136;4.500;2023-09-30T02:17:39;15.57;;;7.78;;
72856;SDS011;62742;52.136;4.500;2023-09-30T02:20:11;14.93;;;7.95;;
72856;SDS011;62742;52.136;4.500;2023-09-30T02:22:41;21.58;;;8.57;;
72856;SDS011;62742;52.136;4.500;2023-09-30T02:25:10;14.57;;;8.18;;
72856;SDS011;62742;52.136;4.500;2023-09-30T02:27:41;14.27;;;7.72;;
72856;SDS011;62742;52.136;4.500;2023-09-30T02:30:08;12.95;;;6.25;;
72856;SDS011;62742;52.136;4.500;2023-09-30T02:32:38;19.02;;;9.15;;
72856;SDS011;62742;52.136;4.500;2023-09-30T02:35:09;13.38;;;7.25;;
72856;SDS011;62742;52.136;4.500;2023-09-30T02:37:38;12.43;;;8.07;;
72856;SDS011;62742;52.136;4.500;2023-09-30T02:40:06;15.60;;;9.25;;
72856;SDS011;62742;52.136;4.500;2023-09-30T02:42:37;20.60;;;9.55;;
72856;SDS011;62742;52.136;4.500;2023-09-30T02:45:05;12.80;;;7.28;;
72856;SDS011;62742;52.136;4.500;2023-09-30T02:47:34;13.82;;;6.93;;
72856;SDS011;62742;52.136;4.500;2023-09-30T02:50:01;16.45;;;7.70;;
72856;SDS011;62742;52.136;4.500;2023-09-30T02:52:28;11.15;;;6.43;;
72856;SDS011;62742;52.136;4.500;2023-09-30T02:54:54;16.05;;;7.35;;
72856;SDS011;62742;52.136;4.500;2023-09-30T02:57:23;13.80;;;7.40;;
72856;SDS011;62742;52.136;4.500;2023-09-30T02:59:50;10.82;;;5.75;;
72856;SDS011;62742;52.136;4.500;2023-09-30T03:02:20;28.48;;;9.40;;
72856;SDS011;62742;52.136;4.500;2023-09-30T03:04:47;24.25;;;9.65;;
72856;SDS011;62742;52.136;4.500;2023-09-30T03:07:15;15.23;;;7.88;;
72856;SDS011;62742;52.136;4.500;2023-09-30T03:09:43;10.52;;;6.20;;
72856;SDS011;62742;52.136;4.500;2023-09-30T03:14:36;14.05;;;7.18;;
72856;SDS011;62742;52.136;4.500;2023-09-30T03:17:02;13.65;;;7.10;;
72856;SDS011;62742;52.136;4.500;2023-09-30T03:19:29;15.60;;;8.18;;
72856;SDS011;62742;52.136;4.500;2023-09-30T03:21:56;15.40;;;6.75;;
72856;SDS011;62742;52.136;4.500;2023-09-30T03:24:22;25.58;;;11.60;;
72856;SDS011;62742;52.136;4.500;2023-09-30T03:26:49;17.60;;;9.55;;
72856;SDS011;62742;52.136;4.500;2023-09-30T03:29:16;15.38;;;7.88;;
72856;SDS011;62742;52.136;4.500;2023-09-30T03:31:42;24.98;;;10.73;;
72856;SDS011;62742;52.136;4.500;2023-09-30T03:34:08;26.95;;;12.30;;
72856;SDS011;62742;52.136;4.500;2023-09-30T03:36:35;27.67;;;13.82;;
72856;SDS011;62742;52.136;4.500;2023-09-30T03:39:02;29.27;;;13.40;;
72856;SDS011;62742;52.136;4.500;2023-09-30T03:41:34;38.75;;;15.65;;
72856;SDS011;62742;52.136;4.500;2023-09-30T03:44:02;25.00;;;11.23;;
72856;SDS011;62742;52.136;4.500;2023-09-30T03:46:29;39.90;;;17.02;;
72856;SDS011;62742;52.136;4.500;2023-09-30T03:48:56;34.53;;;13.90;;
72856;SDS011;62742;52.136;4.500;2023-09-30T03:51:22;41.10;;;14.68;;
72856;SDS011;62742;52.136;4.500;2023-09-30T03:53:51;34.20;;;15.05;;
72856;SDS011;62742;52.136;4.500;2023-09-30T03:56:18;33.90;;;15.75;;
72856;SDS011;62742;52.136;4.500;2023-09-30T03:58:45;37.97;;;16.48;;
72856;SDS011;62742;52.136;4.500;2023-09-30T04:01:14;27.05;;;13.68;;
72856;SDS011;62742;52.136;4.500;2023-09-30T04:03:40;34.60;;;13.52;;
72856;SDS011;62742;52.136;4.500;2023-09-30T04:06:09;35.00;;;15.13;;
72856;SDS011;62742;52.136;4.500;2023-09-30T04:08:35;35.13;;;16.17;;
72856;SDS011;62742;52.136;4.500;2023-09-30T04:11:02;35.28;;;16.67;;
72856;SDS011;62742;52.136;4.500;2023-09-30T04:13:29;39.85;;;17.52;;
72856;SDS011;62742;52.136;4.500;2023-09-30T04:15:56;37.47;;;17.65;;
72856;SDS011;62742;52.136;4.500;2023-09-30T04:18:25;32.92;;;13.93;;
72856;SDS011;62742;52.136;4.500;2023-09-30T04:23:18;37.03;;;16.88;;
72856;SDS011;62742;52.136;4.500;2023-09-30T04:25:46;47.88;;;19.20;;
72856;SDS011;62742;52.136;4.500;2023-09-30T04:28:13;40.35;;;17.50;;
72856;SDS011;62742;52.136;4.500;2023-09-30T04:30:40;32.70;;;15.93;;
72856;SDS011;62742;52.136;4.500;2023-09-30T04:33:07;36.63;;;16.60;;
72856;SDS011;62742;52.136;4.500;2023-09-30T04:35:33;44.50;;;19.23;;
72856;SDS011;62742;52.136;4.500;2023-09-30T04:38:01;53.95;;;19.88;;
72856;SDS011;62742;52.136;4.500;2023-09-30T04:40:30;41.42;;;18.00;;
72856;SDS011;62742;52.136;4.500;2023-09-30T04:42:58;39.70;;;17.77;;
72856;SDS011;62742;52.136;4.500;2023-09-30T04:45:25;28.88;;;15.13;;
72856;SDS011;62742;52.136;4.500;2023-09-30T04:47:55;50.15;;;19.45;;
72856;SDS011;62742;52.136;4.500;2023-09-30T04:50:22;52.45;;;18.98;;
72856;SDS011;62742;52.136;4.500;2023-09-30T04:52:48;41.13;;;19.05;;
72856;SDS011;62742;52.136;4.500;2023-09-30T04:55:16;37.75;;;16.33;;
72856;SDS011;62742;52.136;4.500;2023-09-30T04:57:43;48.33;;;20.60;;
72856;SDS011;62742;52.136;4.500;2023-09-30T05:00:12;43.38;;;20.15;;
72856;SDS011;62742;52.136;4.500;2023-09-30T05:02:40;51.42;;;21.63;;
72856;SDS011;62742;52.136;4.500;2023-09-30T05:05:08;44.28;;;19.95;;
72856;SDS011;62742;52.136;4.500;2023-09-30T05:07:35;40.80;;;18.58;;
72856;SDS011;62742;52.136;4.500;2023-09-30T05:10:02;44.50;;;21.95;;
72856;SDS011;62742;52.136;4.500;2023-09-30T05:12:36;50.75;;;20.48;;
72856;SDS011;62742;52.136;4.500;2023-09-30T05:15:03;34.60;;;14.93;;
72856;SDS011;62742;52.136;4.500;2023-09-30T05:17:34;49.38;;;20.60;;
72856;SDS011;62742;52.136;4.500;2023-09-30T05:20:01;39.72;;;17.65;;
72856;SDS011;62742;52.136;4.500;2023-09-30T05:22:31;56.22;;;22.98;;
72856;SDS011;62742;52.136;4.500;2023-09-30T05:25:01;49.70;;;20.30;;
72856;SDS011;62742;52.136;4.500;2023-09-30T05:27:28;36.05;;;15.55;;
72856;SDS011;62742;52.136;4.500;2023-09-30T05:29:54;21.45;;;11.60;;
72856;SDS011;62742;52.136;4.500;2023-09-30T05:32:21;23.05;;;11.75;;
72856;SDS011;62742;52.136;4.500;2023-09-30T05:34:48;31.23;;;14.18;;
72856;SDS011;62742;52.136;4.500;2023-09-30T05:37:14;16.83;;;9.13;;
72856;SDS011;62742;52.136;4.500;2023-09-30T05:39:41;39.00;;;18.05;;
72856;SDS011;62742;52.136;4.500;2023-09-30T05:44:35;26.25;;;12.75;;
72856;SDS011;62742;52.136;4.500;2023-09-30T05:47:01;42.03;;;19.38;;
72856;SDS011;62742;52.136;4.500;2023-09-30T05:49:28;25.98;;;13.77;;
72856;SDS011;62742;52.136;4.500;2023-09-30T05:51:54;32.20;;;15.52;;
72856;SDS011;62742;52.136;4.500;2023-09-30T05:54:21;33.28;;;16.83;;
72856;SDS011;62742;52.136;4.500;2023-09-30T05:56:48;22.92;;;12.57;;
72856;SDS011;62742;52.136;4.500;2023-09-30T05:59:15;64.78;;;24.23;;
72856;SDS011;62742;52.136;4.500;2023-09-30T06:01:41;62.28;;;24.80;;
72856;SDS011;62742;52.136;4.500;2023-09-30T06:04:08;43.45;;;19.30;;
72856;SDS011;62742;52.136;4.500;2023-09-30T06:06:35;59.85;;;23.25;;
72856;SDS011;62742;52.136;4.500;2023-09-30T06:09:01;58.92;;;25.13;;
72856;SDS011;62742;52.136;4.500;2023-09-30T06:11:28;99.47;;;31.15;;
72856;SDS011;62742;52.136;4.500;2023-09-30T06:13:54;78.72;;;26.65;;
72856;SDS011;62742;52.136;4.500;2023-09-30T06:16:25;46.17;;;21.02;;
72856;SDS011;62742;52.136;4.500;2023-09-30T06:18:55;37.55;;;17.42;;
72856;SDS011;62742;52.136;4.500;2023-09-30T06:21:21;32.33;;;15.60;;
72856;SDS011;62742;52.136;4.500;2023-09-30T06:23:51;51.38;;;22.63;;
72856;SDS011;62742;52.136;4.500;2023-09-30T06:26:20;35.90;;;17.65;;
72856;SDS011;62742;52.136;4.500;2023-09-30T06:28:47;59.38;;;25.23;;
72856;SDS011;62742;52.136;4.500;2023-09-30T06:31:14;31.52;;;16.92;;
72856;SDS011;62742;52.136;4.500;2023-09-30T06:33:41;61.78;;;28.83;;
72856;SDS011;62742;52.136;4.500;2023-09-30T06:36:11;57.30;;;26.73;;
72856;SDS011;62742;52.136;4.500;2023-09-30T06:38:43;59.28;;;26.90;;
72856;SDS011;62742;52.136;4.500;2023-09-30T06:41:16;63.58;;;28.38;;
72856;SDS011;62742;52.136;4.500;2023-09-30T06:43:44;84.57;;;33.83;;
72856;SDS011;62742;52.136;4.500;2023-09-30T06:46:10;83.03;;;33.42;;
72856;SDS011;62742;52.136;4.500;2023-09-30T06:48:37;84.25;;;34.70;;
72856;SDS011;62742;52.136;4.500;2023-09-30T06:51:06;89.30;;;36.65;;
72856;SDS011;62742;52.136;4.500;2023-09-30T06:53:32;102.95;;;40.42;;
72856;SDS011;62742;52.136;4.500;2023-09-30T06:55:59;98.80;;;38.72;;
72856;SDS011;62742;52.136;4.500;2023-09-30T06:58:25;112.25;;;39.88;;
72856;SDS011;62742;52.136;4.500;2023-09-30T07:03:21;79.60;;;35.10;;
72856;SDS011;62742;52.136;4.500;2023-09-30T07:05:48;108.05;;;41.42;;
72856;SDS011;62742;52.136;4.500;2023-09-30T07:08:20;95.35;;;39.10;;
72856;SDS011;62742;52.136;4.500;2023-09-30T07:10:49;111.00;;;43.45;;
72856;SDS011;62742;52.136;4.500;2023-09-30T07:13:16;90.55;;;41.35;;
72856;SDS011;62742;52.136;4.500;2023-09-30T07:15:43;102.60;;;42.28;;
72856;SDS011;62742;52.136;4.500;2023-09-30T07:18:10;95.50;;;41.38;;
72856;SDS011;62742;52.136;4.500;2023-09-30T07:20:41;98.68;;;44.50;;
72856;SDS011;62742;52.136;4.500;2023-09-30T07:23:07;94.82;;;40.95;;
72856;SDS011;62742;52.136;4.500;2023-09-30T07:25:35;93.95;;;41.20;;
72856;SDS011;62742;52.136;4.500;2023-09-30T07:28:01;93.53;;;42.42;;
72856;SDS011;62742;52.136;4.500;2023-09-30T07:30:28;91.00;;;41.97;;
72856;SDS011;62742;52.136;4.500;2023-09-30T07:32:55;86.60;;;39.00;;
72856;SDS011;62742;52.136;4.500;2023-09-30T07:35:21;82.40;;;40.72;;
72856;SDS011;62742;52.136;4.500;2023-09-30T07:37:49;72.32;;;37.30;;
72856;SDS011;62742;52.136;4.500;2023-09-30T07:40:18;79.60;;;38.22;;
72856;SDS011;62742;52.136;4.500;2023-09-30T07:42:47;66.63;;;34.88;;
72856;SDS011;62742;52.136;4.500;2023-09-30T07:45:13;73.57;;;39.08;;
72856;SDS011;62742;52.136;4.500;2023-09-30T07:47:44;76.13;;;38.10;;
72856;SDS011;62742;52.136;4.500;2023-09-30T07:50:12;58.55;;;32.88;;
72856;SDS011;62742;52.136;4.500;2023-09-30T07:52:39;53.45;;;31.50;;
72856;SDS011;62742;52.136;4.500;2023-09-30T07:55:06;44.20;;;27.83;;
72856;SDS011;62742;52.136;4.500;2023-09-30T07:57:34;46.97;;;26.10;;
72856;SDS011;62742;52.136;4.500;2023-09-30T08:00:00;41.83;;;21.92;;
72856;SDS011;62742;52.136;4.500;2023-09-30T08:02:28;39.10;;;20.35;;
72856;SDS011;62742;52.136;4.500;2023-09-30T08:04:59;34.80;;;19.98;;
72856;SDS011;62742;52.136;4.500;2023-09-30T08:07:26;30.52;;;19.02;;
72856;SDS011;62742;52.136;4.500;2023-09-30T08:09:53;31.90;;;17.65;;
72856;SDS011;62742;52.136;4.500;2023-09-30T08:12:19;30.70;;;16.90;;
72856;SDS011;62742;52.136;4.500;2023-09-30T08:14:46;28.42;;;16.73;;
72856;SDS011;62742;52.136;4.500;2023-09-30T08:17:13;29.05;;;16.38;;
72856;SDS011;62742;52.136;4.500;2023-09-30T08:19:41;29.02;;;15.80;;
72856;SDS011;62742;52.136;4.500;2023-09-30T08:22:08;25.83;;;14.00;;
72856;SDS011;62742;52.136;4.500;2023-09-30T08:24:35;26.52;;;14.65;;
72856;SDS011;62742;52.136;4.500;2023-09-30T08:27:01;27.67;;;15.52;;
72856;SDS011;62742;52.136;4.500;2023-09-30T08:29:28;30.17;;;16.10;;
72856;SDS011;62742;52.136;4.500;2023-09-30T08:31:54;28.90;;;14.80;;
72856;SDS011;62742;52.136;4.500;2023-09-30T08:34:21;30.58;;;16.17;;
72856;SDS011;62742;52.136;4.500;2023-09-30T08:36:49;24.98;;;15.57;;
72856;SDS011;62742;52.136;4.500;2023-09-30T08:39:16;27.58;;;15.45;;
72856;SDS011;62742;52.136;4.500;2023-09-30T08:41:42;26.23;;;14.82;;
72856;SDS011;62742;52.136;4.500;2023-09-30T08:44:11;27.80;;;14.32;;
72856;SDS011;62742;52.136;4.500;2023-09-30T08:46:38;30.13;;;16.45;;
72856;SDS011;62742;52.136;4.500;2023-09-30T08:49:06;26.75;;;16.15;;
72856;SDS011;62742;52.136;4.500;2023-09-30T08:51:34;31.67;;;16.92;;
72856;SDS011;62742;52.136;4.500;2023-09-30T08:54:02;28.38;;;15.85;;
72856;SDS011;62742;52.136;4.500;2023-09-30T08:56:30;29.30;;;15.77;;
72856;SDS011;62742;52.136;4.500;2023-09-30T08:58:59;31.77;;;16.55;;
72856;SDS011;62742;52.136;4.500;2023-09-30T09:01:29;25.75;;;15.52;;
72856;SDS011;62742;52.136;4.500;2023-09-30T09:03:57;24.17;;;13.93;;
72856;SDS011;62742;52.136;4.500;2023-09-30T09:06:25;27.40;;;13.80;;
72856;SDS011;62742;52.136;4.500;2023-09-30T09:08:53;25.83;;;12.25;;
72856;SDS011;62742;52.136;4.500;2023-09-30T09:11:20;25.83;;;13.15;;
72856;SDS011;62742;52.136;4.500;2023-09-30T09:13:50;23.20;;;12.05;;
72856;SDS011;62742;52.136;4.500;2023-09-30T09:16:24;21.05;;;10.35;;
72856;SDS011;62742;52.136;4.500;2023-09-30T09:18:51;20.13;;;9.30;;
72856;SDS011;62742;52.136;4.500;2023-09-30T09:21:22;19.25;;;9.43;;
72856;SDS011;62742;52.136;4.500;2023-09-30T09:23:51;17.77;;;8.30;;
72856;SDS011;62742;52.136;4.500;2023-09-30T09:26:25;20.13;;;7.97;;
72856;SDS011;62742;52.136;4.500;2023-09-30T09:28:58;18.42;;;6.72;;
72856;SDS011;62742;52.136;4.500;2023-09-30T09:31:30;17.20;;;6.45;;
72856;SDS011;62742;52.136;4.500;2023-09-30T09:36:42;14.88;;;5.10;;
72856;SDS011;62742;52.136;4.500;2023-09-30T09:39:12;15.77;;;5.20;;
72856;SDS011;62742;52.136;4.500;2023-09-30T09:41:54;14.50;;;4.80;;
72856;SDS011;62742;52.136;4.500;2023-09-30T09:44:23;15.32;;;4.47;;
72856;SDS011;62742;52.136;4.500;2023-09-30T09:46:54;12.65;;;4.40;;
72856;SDS011;62742;52.136;4.500;2023-09-30T09:49:23;10.90;;;3.50;;
72856;SDS011;62742;52.136;4.500;2023-09-30T09:51:51;14.73;;;3.55;;
72856;SDS011;62742;52.136;4.500;2023-09-30T09:54:20;12.52;;;3.33;;
72856;SDS011;62742;52.136;4.500;2023-09-30T09:56:49;11.02;;;2.97;;
72856;SDS011;62742;52.136;4.500;2023-09-30T09:59:19;9.52;;;2.50;;
72856;SDS011;62742;52.136;4.500;2023-09-30T10:01:49;11.43;;;2.92;;
72856;SDS011;62742;52.136;4.500;2023-09-30T10:04:17;10.73;;;2.80;;
72856;SDS011;62742;52.136;4.500;2023-09-30T10:06:46;12.32;;;2.70;;
72856;SDS011;62742;52.136;4.500;2023-09-30T10:09:19;8.48;;;2.85;;
72856;SDS011;62742;52.136;4.500;2023-09-30T10:11:47;9.50;;;2.42;;
72856;SDS011;62742;52.136;4.500;2023-09-30T10:14:30;8.27;;;2.65;;
72856;SDS011;62742;52.136;4.500;2023-09-30T10:17:04;9.50;;;2.22;;
72856;SDS011;62742;52.136;4.500;2023-09-30T10:19:30;10.77;;;2.60;;
72856;SDS011;62742;52.136;4.500;2023-09-30T10:24:46;13.20;;;2.58;;
72856;SDS011;62742;52.136;4.500;2023-09-30T10:29:54;8.73;;;1.98;;
72856;SDS011;62742;52.136;4.500;2023-09-30T10:35:19;9.63;;;1.95;;
72856;SDS011;62742;52.136;4.500;2023-09-30T10:38:54;9.10;;;1.98;;
72856;SDS011;62742;52.136;4.500;2023-09-30T10:40:50;7.82;;;2.05;;
72856;SDS011;62742;52.136;4.500;2023-09-30T10:46:49;7.07;;;2.50;;
72856;SDS011;62742;52.136;4.500;2023-09-30T10:48:53;9.38;;;2.20;;
72856;SDS011;62742;52.136;4.500;2023-09-30T10:51:21;11.20;;;2.60;;
72856;SDS011;62742;52.136;4.500;2023-09-30T10:53:48;6.32;;;1.85;;
72856;SDS011;62742;52.136;4.500;2023-09-30T10:56:23;9.27;;;2.10;;
72856;SDS011;62742;52.136;4.500;2023-09-30T10:58:58;11.73;;;2.20;;
72856;SDS011;62742;52.136;4.500;2023-09-30T11:01:26;8.95;;;2.42;;
72856;SDS011;62742;52.136;4.500;2023-09-30T11:04:01;8.57;;;1.92;;
72856;SDS011;62742;52.136;4.500;2023-09-30T11:06:30;12.40;;;2.38;;
72856;SDS011;62742;52.136;4.500;2023-09-30T11:08:58;10.05;;;2.45;;
72856;SDS011;62742;52.136;4.500;2023-09-30T11:11:34;8.63;;;2.05;;
72856;SDS011;62742;52.136;4.500;2023-09-30T11:16:46;10.00;;;2.10;;
72856;SDS011;62742;52.136;4.500;2023-09-30T11:19:18;9.57;;;2.33;;
72856;SDS011;62742;52.136;4.500;2023-09-30T11:21:49;11.65;;;2.60;;
72856;SDS011;62742;52.136;4.500;2023-09-30T11:24:18;9.73;;;2.30;;
72856;SDS011;62742;52.136;4.500;2023-09-30T11:26:45;10.55;;;2.13;;
72856;SDS011;62742;52.136;4.500;2023-09-30T11:29:13;10.50;;;2.20;;
72856;SDS011;62742;52.136;4.500;2023-09-30T11:31:46;11.75;;;2.72;;
72856;SDS011;62742;52.136;4.500;2023-09-30T11:34:15;13.20;;;2.50;;
72856;SDS011;62742;52.136;4.500;2023-09-30T11:36:53;11.70;;;2.78;;
72856;SDS011;62742;52.136;4.500;2023-09-30T11:39:23;11.23;;;2.22;;
72856;SDS011;62742;52.136;4.500;2023-09-30T11:41:52;9.75;;;2.83;;
72856;SDS011;62742;52.136;4.500;2023-09-30T11:44:21;10.73;;;2.30;;
72856;SDS011;62742;52.136;4.500;2023-09-30T11:46:57;9.57;;;2.10;;
72856;SDS011;62742;52.136;4.500;2023-09-30T11:49:30;10.30;;;2.45;;
72856;SDS011;62742;52.136;4.500;2023-09-30T11:54:36;10.88;;;2.97;;
72856;SDS011;62742;52.136;4.500;2023-09-30T11:57:07;7.97;;;2.28;;
72856;SDS011;62742;52.136;4.500;2023-09-30T11:59:37;13.75;;;2.58;;
72856;SDS011;62742;52.136;4.500;2023-09-30T12:02:07;9.77;;;2.83;;
72856;SDS011;62742;52.136;4.500;2023-09-30T12:04:38;10.85;;;2.33;;
72856;SDS011;62742;52.136;4.500;2023-09-30T12:07:05;11.73;;;2.80;;
72856;SDS011;62742;52.136;4.500;2023-09-30T12:09:34;11.18;;;2.60;;
72856;SDS011;62742;52.136;4.500;2023-09-30T12:12:03;11.55;;;2.80;;
72856;SDS011;62742;52.136;4.500;2023-09-30T12:14:31;11.35;;;2.58;;
72856;SDS011;62742;52.136;4.500;2023-09-30T12:16:58;9.98;;;2.67;;
72856;SDS011;62742;52.136;4.500;2023-09-30T12:19:24;9.30;;;2.33;;
72856;SDS011;62742;52.136;4.500;2023-09-30T12:21:52;12.68;;;3.03;;
72856;SDS011;62742;52.136;4.500;2023-09-30T12:24:18;11.35;;;2.55;;
72856;SDS011;62742;52.136;4.500;2023-09-30T12:26:50;8.18;;;2.28;;
72856;SDS011;62742;52.136;4.500;2023-09-30T12:29:19;9.52;;;2.78;;
72856;SDS011;62742;52.136;4.500;2023-09-30T12:31:49;11.73;;;2.90;;
72856;SDS011;62742;52.136;4.500;2023-09-30T12:34:18;9.93;;;2.67;;
72856;SDS011;62742;52.136;4.500;2023-09-30T12:36:44;8.82;;;2.55;;
72856;SDS011;62742;52.136;4.500;2023-09-30T12:39:11;8.60;;;2.78;;
72856;SDS011;62742;52.136;4.500;2023-09-30T12:41:41;11.45;;;2.83;;
72856;SDS011;62742;52.136;4.500;2023-09-30T12:44:09;12.73;;;3.40;;
72856;SDS011;62742;52.136;4.500;2023-09-30T12:46:37;9.93;;;3.15;;
72856;SDS011;62742;52.136;4.500;2023-09-30T12:49:08;11.25;;;3.00;;
72856;SDS011;62742;52.136;4.500;2023-09-30T12:51:35;10.40;;;3.25;;
72856;SDS011;62742;52.136;4.500;2023-09-30T12:54:02;11.43;;;3.47;;
72856;SDS011;62742;52.136;4.500;2023-09-30T12:56:30;8.90;;;3.05;;
72856;SDS011;62742;52.136;4.500;2023-09-30T12:58:57;14.68;;;3.28;;
72856;SDS011;62742;52.136;4.500;2023-09-30T13:01:24;10.20;;;3.30;;
72856;SDS011;62742;52.136;4.500;2023-09-30T13:03:51;11.45;;;3.22;;
72856;SDS011;62742;52.136;4.500;2023-09-30T13:06:19;10.15;;;2.80;;
72856;SDS011;62742;52.136;4.500;2023-09-30T13:08:46;9.10;;;3.30;;
72856;SDS011;62742;52.136;4.500;2023-09-30T13:11:13;10.73;;;2.80;;
72856;SDS011;62742;52.136;4.500;2023-09-30T13:13:40;11.55;;;3.20;;
72856;SDS011;62742;52.136;4.500;2023-09-30T13:16:09;12.60;;;3.13;;
72856;SDS011;62742;52.136;4.500;2023-09-30T13:18:37;11.52;;;3.15;;
72856;SDS011;62742;52.136;4.500;2023-09-30T13:21:03;12.65;;;2.85;;
72856;SDS011;62742;52.136;4.500;2023-09-30T13:23:31;11.93;;;3.17;;
72856;SDS011;62742;52.136;4.500;2023-09-30T13:25:59;9.70;;;2.60;;
72856;SDS011;62742;52.136;4.500;2023-09-30T13:28:26;11.00;;;2.53;;
72856;SDS011;62742;52.136;4.500;2023-09-30T13:30:56;9.77;;;2.70;;
72856;SDS011;62742;52.136;4.500;2023-09-30T13:33:22;12.88;;;3.33;;
72856;SDS011;62742;52.136;4.500;2023-09-30T13:35:49;9.70;;;3.08;;
72856;SDS011;62742;52.136;4.500;2023-09-30T13:38:16;12.43;;;2.83;;
72856;SDS011;62742;52.136;4.500;2023-09-30T13:40:42;11.73;;;2.53;;
72856;SDS011;62742;52.136;4.500;2023-09-30T13:43:09;12.10;;;2.75;;
72856;SDS011;62742;52.136;4.500;2023-09-30T13:45:36;10.32;;;2.58;;
72856;SDS011;62742;52.136;4.500;2023-09-30T13:48:03;12.32;;;2.30;;
72856;SDS011;62742;52.136;4.500;2023-09-30T13:50:30;8.77;;;2.63;;
72856;SDS011;62742;52.136;4.500;2023-09-30T13:52:57;10.45;;;2.58;;
72856;SDS011;62742;52.136;4.500;2023-09-30T13:55:26;12.10;;;2.53;;
72856;SDS011;62742;52.136;4.500;2023-09-30T13:57:53;8.90;;;2.50;;
72856;SDS011;62742;52.136;4.500;2023-09-30T14:00:19;9.93;;;2.45;;
72856;SDS011;62742;52.136;4.500;2023-09-30T14:02:46;9.55;;;2.65;;
72856;SDS011;62742;52.136;4.500;2023-09-30T14:05:13;13.15;;;2.80;;
72856;SDS011;62742;52.136;4.500;2023-09-30T14:07:40;8.90;;;2.58;;
72856;SDS011;62742;52.136;4.500;2023-09-30T14:10:07;9.82;;;2.60;;
72856;SDS011;62742;52.136;4.500;2023-09-30T14:12:36;8.25;;;2.28;;
72856;SDS011;62742;52.136;4.500;2023-09-30T14:15:05;10.20;;;2.40;;
72856;SDS011;62742;52.136;4.500;2023-09-30T14:17:32;10.68;;;2.78;;
72856;SDS011;62742;52.136;4.500;2023-09-30T14:20:00;10.63;;;2.42;;
72856;SDS011;62742;52.136;4.500;2023-09-30T14:22:27;8.48;;;2.45;;
72856;SDS011;62742;52.136;4.500;2023-09-30T14:24:53;9.00;;;2.53;;
72856;SDS011;62742;52.136;4.500;2023-09-30T14:27:19;9.93;;;2.47;;
72856;SDS011;62742;52.136;4.500;2023-09-30T14:29:47;11.40;;;2.63;;
72856;SDS011;62742;52.136;4.500;2023-09-30T14:32:14;10.40;;;2.55;;
72856;SDS011;62742;52.136;4.500;2023-09-30T14:34:40;9.25;;;2.28;;
72856;SDS011;62742;52.136;4.500;2023-09-30T14:37:07;9.40;;;2.28;;
72856;SDS011;62742;52.136;4.500;2023-09-30T14:39:33;10.50;;;2.58;;
72856;SDS011;62742;52.136;4.500;2023-09-30T14:42:00;11.30;;;2.42;;
72856;SDS011;62742;52.136;4.500;2023-09-30T14:44:26;6.18;;;1.58;;
72856;SDS011;62742;52.136;4.500;2023-09-30T14:46:52;12.20;;;2.42;;
72856;SDS011;62742;52.136;4.500;2023-09-30T14:49:20;10.65;;;2.20;;
72856;SDS011;62742;52.136;4.500;2023-09-30T14:51:46;9.88;;;2.33;;
72856;SDS011;62742;52.136;4.500;2023-09-30T14:54:14;9.00;;;1.98;;
72856;SDS011;62742;52.136;4.500;2023-09-30T14:56:40;8.68;;;2.17;;
72856;SDS011;62742;52.136;4.500;2023-09-30T14:59:07;10.05;;;2.30;;
72856;SDS011;62742;52.136;4.500;2023-09-30T15:01:33;9.10;;;2.53;;
72856;SDS011;62742;52.136;4.500;2023-09-30T15:04:00;9.95;;;2.45;;
72856;SDS011;62742;52.136;4.500;2023-09-30T15:06:26;10.00;;;3.08;;
72856;SDS011;62742;52.136;4.500;2023-09-30T15:08:54;11.38;;;2.90;;